< < Back
Terminal Aerodrome Forecast


Current Version              Previous Versions:   1  2  3  4  5  6  7  8  9  

Terminal Aerodrome Forecast

387
FTUS44 KMRX 292320
TAFTYS
TAF
KTYS 292320Z 3000/3024 35003KT P6SM SCT150
     FM300900 32002KT 5SM BR SCT250
     FM301600 34007KT P6SM SCT040=

Latest METAR

808
SAUS80 KWBC 300100 RRA
MTRTYS
METAR KTYS 300053Z 06004KT 10SM SCT070 22/19 A3004 RMK AO2 RAE00 SLP164
P0000 T02220189


USA.gov is the U.S. government's official web portal to all federal, state and local government web resources and services.